KAFO/AFO METAR and TAF weather

Enter ICAO airport designator
Station Type Date Time Source
KAFO METAR 2018/12/12 16:15 UTC NOAA

KAFO 121615Z AUTO 00000KT 1/2SM SN OVC010 M02/M03 A2987 RMK AO2


Station Type Date Time Source
KAFO Decoded METAR 2018/12/12 16:15 UTC NOAA

Station name not available
Dec 12, 2018 - 11:15 AM EST / 2018.12.12 1615 UTC
Wind: Calm:0
Visibility: 1/2 mile(s):0
Sky conditions: overcast
Weather: snow
Temperature: 28 F (-2 C)
Dew Point: 26 F (-3 C)
Relative Humidity: 92%
Pressure (altimeter): 29.87 in. Hg (1011 hPa)
ob: KAFO 121615Z AUTO 00000KT 1/2SM SN OVC010 M02/M03 A2987 RMK AO2
cycle: 16

Station Type Date Time Source
KAFO TAF UTC NOAA

Error!


Example: see airport list